Time;durP1;ratioP1;P1;durP2;ratioP2;P2;SDS_P1;SDS_P2;PMS_P1;PMS_P2;Temp;Humidity;BMP_temperature;BMP_pressure;BME280_temperature;BME280_humidity;BME280_pressure;Samples;Min_cycle;Max_cycle;Signal;HPM_P1;HPM_P2
2023/01/29 00:02:20;;;;;;;17.95;11.25;;;;;;;-1.22;100.00;101973.91;5181004;28;20024;-71
2023/01/29 00:04:50;;;;;;;18.17;10.82;;;;;;;-0.79;100.00;101959.97;5189971;28;20029;-71
2023/01/29 00:07:21;;;;;;;16.75;10.75;;;;;;;-0.89;100.00;101964.78;5187729;28;20461;-71
2023/01/29 00:09:52;;;;;;;15.90;10.85;;;;;;;-0.88;100.00;101963.94;5178904;28;20060;-71
2023/01/29 00:12:22;;;;;;;19.90;11.40;;;;;;;-1.02;100.00;101958.38;5183547;28;20026;-71
2023/01/29 00:14:52;;;;;;;22.65;11.05;;;;;;;-0.86;100.00;101945.19;5169028;28;20028;-71
2023/01/29 00:17:23;;;;;;;20.85;10.63;;;;;;;-0.81;100.00;101937.66;5184719;28;20033;-71
2023/01/29 00:19:53;;;;;;;15.23;9.90;;;;;;;-0.87;100.00;101946.03;5184270;28;20446;-71
2023/01/29 00:22:24;;;;;;;17.35;10.07;;;;;;;-0.90;100.00;101947.63;5192684;28;20091;-71
2023/01/29 00:24:54;;;;;;;16.98;10.40;;;;;;;-0.97;100.00;101950.81;5188147;28;20104;-71
2023/01/29 00:27:24;;;;;;;20.05;11.13;;;;;;;-0.97;100.00;101944.00;5181725;28;20435;-71
2023/01/29 00:30:13;;;;;;;18.50;11.07;;;;;;;-1.13;100.00;101948.56;5188175;28;20112;-71
2023/01/29 00:32:44;;;;;;;17.40;10.70;;;;;;;-1.05;100.00;101952.28;5186879;28;20032;-71
2023/01/29 00:35:14;;;;;;;18.35;11.25;;;;;;;-1.08;100.00;101944.47;5219138;22;20049;-74
2023/01/29 00:37:45;;;;;;;16.90;10.40;;;;;;;-1.13;100.00;101943.44;5200016;28;20491;-73
2023/01/29 00:40:15;;;;;;;18.25;11.25;;;;;;;-1.19;100.00;101939.00;5207874;28;20030;-73
2023/01/29 00:45:37;;;;;;;19.30;11.27;;;;;;;-1.17;100.00;101928.78;5199283;28;20037;-74
2023/01/29 00:48:08;;;;;;;17.30;11.35;;;;;;;-1.10;100.00;101928.19;5208583;28;20074;-74
2023/01/29 00:50:38;;;;;;;22.90;11.10;;;;;;;-0.85;100.00;101923.00;5206785;28;20029;-73
2023/01/29 00:53:08;;;;;;;19.08;10.70;;;;;;;-0.83;100.00;101923.91;5210129;28;20036;-75
2023/01/29 00:55:38;;;;;;;15.93;10.77;;;;;;;-0.73;100.00;101916.53;5202664;28;20119;-74
2023/01/29 00:58:09;;;;;;;16.67;11.02;;;;;;;-0.79;100.00;101911.22;5209003;28;20073;-73
2023/01/29 01:00:39;;;;;;;17.08;10.23;;;;;;;-0.84;100.00;101917.03;5209257;28;20410;-73
2023/01/29 01:03:09;;;;;;;20.30;11.60;;;;;;;-0.97;100.00;101926.03;5205772;28;20083;-73
2023/01/29 01:05:41;;;;;;;18.75;11.02;;;;;;;-0.97;100.00;101927.72;5193790;28;20691;-74
2023/01/29 01:11:05;;;;;;;32.83;15.13;;;;;;;-1.01;100.00;101923.31;5205335;28;20033;-74
2023/01/29 01:13:35;;;;;;;40.80;19.50;;;;;;;-1.12;100.00;101922.97;5209961;28;20248;-73
2023/01/29 01:16:15;;;;;;;27.75;14.75;;;;;;;-1.12;100.00;101920.41;5203199;28;20064;-74
2023/01/29 01:18:46;;;;;;;23.25;11.55;;;;;;;-1.21;100.00;101927.78;5211058;28;20040;-74
2023/01/29 01:21:16;;;;;;;19.52;10.85;;;;;;;-1.10;100.00;101923.03;5214668;28;20391;-74
2023/01/29 01:23:46;;;;;;;16.35;9.77;;;;;;;-1.11;100.00;101926.41;5217159;28;20045;-73
2023/01/29 01:26:17;;;;;;;20.02;10.90;;;;;;;-1.07;100.00;101923.13;5204196;28;20472;-73
2023/01/29 01:28:48;;;;;;;21.35;11.15;;;;;;;-1.15;100.00;101914.31;5204145;28;20110;-72
2023/01/29 01:31:18;;;;;;;18.08;10.32;;;;;;;-1.05;100.00;101911.22;5205835;28;20025;-73
2023/01/29 01:33:50;;;;;;;18.95;10.50;;;;;;;-1.02;100.00;101895.94;5216906;28;20021;-73
2023/01/29 01:36:20;;;;;;;18.83;10.65;;;;;;;-0.94;100.00;101897.03;5209498;28;20029;-74
2023/01/29 01:38:50;;;;;;;20.58;11.30;;;;;;;-1.07;100.00;101892.38;5208070;28;20031;-73
2023/01/29 01:41:22;;;;;;;22.48;10.73;;;;;;;-1.12;100.00;101886.19;5208420;28;20113;-73
2023/01/29 01:43:59;;;;;;;17.60;10.43;;;;;;;-1.05;100.00;101880.47;5213638;28;20025;-74
2023/01/29 01:46:33;;;;;;;21.08;10.77;;;;;;;-1.02;100.00;101870.28;5197282;28;20394;-73
2023/01/29 01:49:17;;;;;;;20.85;11.70;;;;;;;-0.90;100.00;101881.78;5203615;28;20028;-73
2023/01/29 01:51:51;;;;;;;21.75;11.82;;;;;;;-0.88;100.00;101885.28;5207718;28;20112;-72
2023/01/29 01:54:25;;;;;;;20.33;11.63;;;;;;;-0.86;100.00;101882.78;5206867;28;20493;-74
2023/01/29 01:57:08;;;;;;;21.38;11.40;;;;;;;-0.75;100.00;101876.28;5203877;28;20486;-73
2023/01/29 01:59:39;;;;;;;20.38;10.82;;;;;;;-0.68;100.00;101870.50;5214981;28;20051;-74
2023/01/29 02:10:42;;;;;;;21.83;11.50;;;;;;;-0.70;100.00;101874.72;5204860;28;20094;-74
2023/01/29 02:13:17;;;;;;;22.75;11.50;;;;;;;-0.66;100.00;101881.69;5199908;28;20028;-73
2023/01/29 02:15:47;;;;;;;22.73;11.95;;;;;;;-0.60;100.00;101881.84;5199410;28;20025;-74
2023/01/29 02:18:20;;;;;;;20.88;11.63;;;;;;;-0.48;100.00;101887.34;5202295;28;20025;-73
2023/01/29 02:21:04;;;;;;;23.67;10.85;;;;;;;-0.48;100.00;101892.50;5189679;28;20036;-73
2023/01/29 02:24:11;;;;;;;22.90;11.55;;;;;;;-0.44;100.00;101886.63;5197063;28;20029;-71
2023/01/29 02:27:11;;;;;;;18.38;11.07;;;;;;;-0.40;100.00;101888.47;5199042;28;20038;-72
2023/01/29 02:30:12;;;;;;;20.65;11.07;;;;;;;-0.47;100.00;101884.84;5199455;28;20132;-74
2023/01/29 02:32:57;;;;;;;21.05;11.65;;;;;;;-0.33;100.00;101877.53;5204432;28;20462;-72
2023/01/29 02:35:45;;;;;;;19.73;11.00;;;;;;;-0.24;100.00;101876.09;5206109;28;20040;-73
2023/01/29 02:38:54;;;;;;;23.05;11.13;;;;;;;-0.27;100.00;101882.84;5202741;28;20048;-74
2023/01/29 02:41:38;;;;;;;19.92;11.30;;;;;;;-0.17;100.00;101887.41;5191111;28;20045;-72
2023/01/29 02:44:19;;;;;;;18.98;11.13;;;;;;;-0.13;100.00;101876.41;5207396;28;20022;-72
2023/01/29 02:47:12;;;;;;;23.17;11.93;;;;;;;-0.17;100.00;101884.84;5202806;28;20020;-72
2023/01/29 02:49:49;;;;;;;22.67;12.05;;;;;;;-0.03;100.00;101899.81;5199425;28;20037;-72
2023/01/29 02:52:29;;;;;;;22.73;12.07;;;;;;;-0.03;100.00;101895.56;5208286;28;20033;-72
2023/01/29 02:55:09;;;;;;;19.45;11.68;;;;;;;0.22;100.00;101897.97;5202653;28;20025;-71
2023/01/29 02:57:43;;;;;;;21.85;11.80;;;;;;;0.11;100.00;101904.53;5201011;28;20025;-72
2023/01/29 03:00:18;;;;;;;20.38;11.40;;;;;;;0.11;100.00;101909.66;5201673;28;20029;-73
2023/01/29 03:03:07;;;;;;;;;;;;;;;0.23;100.00;101897.13;5196079;28;20464;-74
2023/01/29 03:06:01;;;;;;;23.17;11.20;;;;;;;0.25;100.00;101905.75;5203443;28;19913;-74
2023/01/29 03:08:41;;;;;;;21.80;12.52;;;;;;;0.16;100.00;101902.94;5210584;28;20018;-74
2023/01/29 03:11:13;;;;;;;20.90;11.20;;;;;;;0.27;100.00;101896.41;5208565;28;20265;-72
2023/01/29 03:14:15;;;;;;;22.00;11.82;;;;;;;0.19;100.00;101897.88;5211217;28;20530;-71
2023/01/29 03:16:49;;;;;;;24.35;12.60;;;;;;;0.18;100.00;101887.56;5202541;28;21468;-71
2023/01/29 03:19:30;;;;;;;22.40;12.07;;;;;;;0.21;100.00;101890.22;5208196;28;20091;-72
2023/01/29 03:22:04;;;;;;;21.50;11.75;;;;;;;0.24;100.00;101893.72;5203877;28;20036;-74
2023/01/29 03:33:39;;;;;;;22.27;11.80;;;;;;;0.35;100.00;101878.63;5212118;28;20437;-71
2023/01/29 03:36:44;;;;;;;19.52;10.80;;;;;;;0.27;100.00;101877.53;5211521;28;20255;-73
2023/01/29 03:39:16;;;;;;;21.73;11.63;;;;;;;0.30;100.00;101875.03;5216634;28;20057;-72
2023/01/29 03:42:08;;;;;;;19.73;11.10;;;;;;;0.27;100.00;101880.97;5206757;28;20029;-73
2023/01/29 03:44:59;;;;;;;20.27;11.27;;;;;;;0.41;100.00;101879.63;5206393;28;20060;-74
2023/01/29 03:47:39;;;;;;;22.10;12.38;;;;;;;0.44;100.00;101874.56;5204775;28;20509;-73
2023/01/29 03:50:34;;;;;;;22.58;12.40;;;;;;;0.30;100.00;101877.59;5202501;28;20025;-73
2023/01/29 03:53:18;;;;;;;24.55;13.00;;;;;;;0.36;100.00;101873.50;5209155;28;20041;-71
2023/01/29 03:56:06;;;;;;;22.42;12.75;;;;;;;0.32;100.00;101861.41;5209091;28;20111;-72
2023/01/29 03:58:45;;;;;;;21.67;12.25;;;;;;;0.38;100.00;101855.56;5201469;28;20041;-71
2023/01/29 04:01:27;;;;;;;24.42;12.77;;;;;;;0.31;100.00;101851.94;5208605;28;20057;-73
2023/01/29 04:04:07;;;;;;;21.52;12.32;;;;;;;0.26;100.00;101852.66;5207216;28;20359;-73
2023/01/29 04:06:42;;;;;;;26.33;13.00;;;;;;;0.32;100.00;101840.84;5209647;28;20109;-72
2023/01/29 04:09:21;;;;;;;25.83;13.75;;;;;;;0.27;100.00;101855.28;5207552;28;20025;-74
2023/01/29 04:12:00;;;;;;;30.85;12.75;;;;;;;0.29;100.00;101843.34;5211330;28;20033;-72
2023/01/29 04:14:31;;;;;;;24.60;13.10;;;;;;;0.27;100.00;101845.00;5204474;28;20041;-73
2023/01/29 04:17:08;;;;;;;24.67;13.27;;;;;;;0.17;100.00;101839.53;5199544;28;20017;-72
2023/01/29 04:19:38;;;;;;;24.08;13.05;;;;;;;0.26;100.00;101832.97;5211792;28;20025;-73
2023/01/29 04:22:23;;;;;;;20.27;12.02;;;;;;;0.22;100.00;101835.41;5210742;28;20537;-73
2023/01/29 04:24:53;;;;;;;21.70;12.70;;;;;;;0.28;100.00;101828.75;5208394;28;20025;-72
2023/01/29 04:27:41;;;;;;;24.75;13.60;;;;;;;0.32;100.00;101812.56;5213467;28;20481;-73
2023/01/29 04:30:37;;;;;;;23.65;13.02;;;;;;;0.16;100.00;101810.44;5205840;28;20417;-72
2023/01/29 04:33:20;;;;;;;23.00;13.18;;;;;;;0.10;100.00;101810.28;5207695;28;21518;-73
2023/01/29 04:36:22;;;;;;;22.00;12.95;;;;;;;0.15;100.00;101800.97;5212400;28;20048;-72
2023/01/29 04:39:03;;;;;;;24.20;13.50;;;;;;;0.16;100.00;101801.84;5206519;28;20102;-74
2023/01/29 04:42:01;;;;;;;26.63;12.27;;;;;;;0.19;100.00;101795.06;5205058;28;20029;-73
2023/01/29 04:44:46;;;;;;;23.30;12.68;;;;;;;0.29;100.00;101786.78;5199238;28;20026;-72
2023/01/29 04:47:34;;;;;;;24.80;13.10;;;;;;;0.27;100.00;101788.44;5208451;28;20615;-72
2023/01/29 04:50:15;;;;;;;23.67;12.82;;;;;;;0.06;100.00;101787.03;5203909;28;20040;-73
2023/01/29 04:53:17;;;;;;;23.27;12.93;;;;;;;0.08;100.00;101785.38;5209523;28;20037;-73
2023/01/29 04:55:58;;;;;;;22.67;12.98;;;;;;;0.08;100.00;101765.66;5207215;28;20020;-74
2023/01/29 04:58:39;;;;;;;23.60;12.93;;;;;;;0.03;100.00;101772.38;5206039;28;20028;-72
2023/01/29 05:01:12;;;;;;;21.17;12.05;;;;;;;0.05;100.00;101760.44;5200161;28;20635;-73
2023/01/29 05:03:48;;;;;;;20.52;12.07;;;;;;;-0.01;100.00;101755.16;5214693;28;20043;-72
2023/01/29 05:06:19;;;;;;;23.02;13.20;;;;;;;-0.08;100.00;101749.84;5211790;28;20045;-72
2023/01/29 05:08:51;;;;;;;25.05;12.95;;;;;;;-0.06;100.00;101757.59;5204420;28;20028;-74
2023/01/29 05:11:24;;;;;;;23.05;13.27;;;;;;;-0.10;100.00;101746.34;5207942;28;20497;-72
2023/01/29 05:13:55;;;;;;;23.63;13.27;;;;;;;-0.14;100.00;101748.81;5202279;28;20382;-73
2023/01/29 05:16:40;;;;;;;23.60;13.40;;;;;;;-0.10;100.00;101755.75;5202506;28;20025;-72
2023/01/29 05:19:13;;;;;;;23.25;13.50;;;;;;;-0.13;100.00;101751.41;5200037;28;20545;-73
2023/01/29 05:21:46;;;;;;;24.17;12.85;;;;;;;-0.11;100.00;101761.72;5207305;28;20120;-72
2023/01/29 05:24:22;;;;;;;23.10;13.25;;;;;;;-0.07;100.00;101758.41;5213367;28;20031;-74
2023/01/29 05:29:45;;;;;;;25.77;13.82;;;;;;;-0.17;100.00;101752.19;5199274;28;20556;-72
2023/01/29 05:32:15;;;;;;;22.80;13.27;;;;;;;-0.07;100.00;101749.00;5210823;28;20033;-73
2023/01/29 05:34:46;;;;;;;26.42;14.40;;;;;;;-0.24;100.00;101749.41;5217335;28;20051;-71
2023/01/29 05:37:16;;;;;;;25.83;14.15;;;;;;;-0.23;100.00;101759.69;5211744;28;20024;-72
2023/01/29 05:39:46;;;;;;;22.63;13.25;;;;;;;-0.17;100.00;101756.44;5207495;28;20025;-72
2023/01/29 05:42:17;;;;;;;26.13;14.15;;;;;;;-0.08;100.00;101760.09;5203366;28;20107;-73
2023/01/29 05:44:47;;;;;;;26.48;14.23;;;;;;;-0.12;100.00;101754.84;5204162;28;20379;-72
2023/01/29 05:47:21;;;;;;;24.52;13.25;;;;;;;-0.13;100.00;101765.94;5199980;28;20021;-73
2023/01/29 05:49:51;;;;;;;25.85;13.95;;;;;;;-0.17;100.00;101759.88;5201494;28;20021;-71
2023/01/29 05:52:22;;;;;;;23.95;13.50;;;;;;;0.00;100.00;101767.19;5209615;28;20029;-72
2023/01/29 05:54:52;;;;;;;26.70;14.02;;;;;;;-0.03;100.00;101778.22;5210190;28;20029;-72
2023/01/29 05:57:22;;;;;;;28.08;14.05;;;;;;;-0.05;100.00;101777.31;5202664;28;20109;-72
2023/01/29 05:59:52;;;;;;;26.90;14.07;;;;;;;-0.01;100.00;101774.84;5202536;28;20029;-71
2023/01/29 06:02:23;;;;;;;27.27;14.07;;;;;;;-0.02;100.00;101773.09;5205395;28;20028;-72
2023/01/29 06:04:53;;;;;;;28.55;14.93;;;;;;;0.02;100.00;101780.94;5207951;28;20037;-74
2023/01/29 06:07:23;;;;;;;23.52;13.93;;;;;;;0.12;100.00;101785.50;5207891;28;20056;-73
2023/01/29 06:09:54;;;;;;;25.30;14.38;;;;;;;0.13;100.00;101783.78;5200201;28;20032;-72
2023/01/29 06:12:25;;;;;;;26.42;14.13;;;;;;;0.14;100.00;101791.53;5204103;28;20033;-74
2023/01/29 06:14:56;;;;;;;25.67;14.50;;;;;;;0.19;100.00;101799.38;5194418;28;20025;-74
2023/01/29 06:17:26;;;;;;;25.10;14.23;;;;;;;0.29;100.00;101794.50;5188519;28;20079;-72
2023/01/29 06:19:56;;;;;;;28.95;14.82;;;;;;;0.37;100.00;101795.53;5206733;28;20031;-73
2023/01/29 06:22:28;;;;;;;28.15;15.25;;;;;;;0.33;100.00;101800.56;5204471;28;20474;-73
2023/01/29 06:24:58;;;;;;;28.23;15.30;;;;;;;0.34;100.00;101799.72;5210547;28;20048;-72
2023/01/29 06:27:28;;;;;;;27.60;14.50;;;;;;;0.42;100.00;101800.81;5201434;28;20198;-72
2023/01/29 06:29:58;;;;;;;28.08;15.07;;;;;;;0.53;100.00;101801.94;5199401;28;20033;-72
2023/01/29 06:32:29;;;;;;;30.20;15.48;;;;;;;0.62;100.00;101803.03;5208416;28;20020;-72
2023/01/29 06:34:59;;;;;;;26.50;14.40;;;;;;;0.56;100.00;101792.56;5229906;23;20041;-76
2023/01/29 06:37:29;;;;;;;25.52;13.95;;;;;;;0.50;100.00;101795.00;5205531;28;20111;-75
2023/01/29 06:40:00;;;;;;;24.80;14.50;;;;;;;0.39;100.00;101786.16;5203357;28;20040;-76
2023/01/29 06:42:30;;;;;;;28.80;15.23;;;;;;;0.29;100.00;101781.63;5209152;28;20040;-76
2023/01/29 06:45:00;;;;;;;27.25;14.70;;;;;;;0.41;100.00;101770.78;5208239;28;20120;-76
2023/01/29 06:47:31;;;;;;;25.95;14.32;;;;;;;0.43;100.00;101776.81;5203786;28;20503;-75
2023/01/29 06:50:02;;;;;;;27.48;14.57;;;;;;;0.53;100.00;101781.38;5199880;28;20021;-75
2023/01/29 06:52:33;;;;;;;24.80;14.77;;;;;;;0.45;100.00;101772.59;5208718;28;20021;-75
2023/01/29 06:55:03;;;;;;;28.40;16.13;;;;;;;0.36;100.00;101773.22;5208380;28;20494;-75
2023/01/29 06:57:34;;;;;;;26.98;15.63;;;;;;;0.40;100.00;101785.31;5196249;28;20164;-73
2023/01/29 07:00:05;;;;;;;27.52;15.18;;;;;;;0.37;100.00;101795.53;5207801;28;20033;-73
2023/01/29 07:02:35;;;;;;;30.35;16.08;;;;;;;0.43;100.00;101787.09;5208213;28;20029;-73
2023/01/29 07:05:06;;;;;;;29.02;15.43;;;;;;;0.55;100.00;101785.69;5203482;28;20352;-72
2023/01/29 07:07:36;;;;;;;29.30;15.65;;;;;;;0.54;100.00;101783.97;5200663;28;20025;-73
2023/01/29 07:10:07;;;;;;;27.85;15.13;;;;;;;0.51;99.81;101786.47;5200751;28;20033;-72
2023/01/29 07:12:37;;;;;;;29.60;14.82;;;;;;;0.55;99.09;101774.56;5208570;28;20032;-71
2023/01/29 07:15:08;;;;;;;28.98;15.23;;;;;;;0.64;98.65;101780.78;5207224;28;20021;-72
2023/01/29 07:17:38;;;;;;;28.30;14.77;;;;;;;0.69;97.73;101776.59;5199754;28;20021;-73
2023/01/29 07:20:09;;;;;;;27.92;15.77;;;;;;;0.64;98.07;101795.31;5204232;28;20029;-73
2023/01/29 07:22:40;;;;;;;28.35;15.25;;;;;;;0.63;98.41;101806.44;5207717;28;20029;-73
2023/01/29 07:25:10;;;;;;;31.40;15.50;;;;;;;0.67;97.74;101828.84;5209657;28;20527;-73
2023/01/29 07:27:40;;;;;;;29.55;15.35;;;;;;;0.67;98.50;101834.88;5201439;28;20044;-73
2023/01/29 07:30:11;;;;;;;27.67;15.48;;;;;;;0.80;98.76;101824.03;5202850;28;20038;-73
2023/01/29 07:32:42;;;;;;;28.77;15.27;;;;;;;0.70;98.40;101827.22;5201581;28;20330;-72
2023/01/29 07:35:12;;;;;;;28.98;15.70;;;;;;;0.66;98.32;101821.94;5207565;28;20398;-73
2023/01/29 07:37:43;;;;;;;28.17;15.48;;;;;;;0.57;99.19;101809.75;5207686;28;20486;-73
2023/01/29 07:40:13;;;;;;;26.80;15.15;;;;;;;0.55;100.00;101798.56;5198239;28;20041;-73
2023/01/29 07:42:44;;;;;;;30.50;15.52;;;;;;;0.51;100.00;101794.19;5198704;28;20030;-73
2023/01/29 07:45:14;;;;;;;30.67;15.98;;;;;;;0.64;99.82;101785.03;5202245;28;20133;-73
2023/01/29 07:47:51;;;;;;;28.25;16.13;;;;;;;0.64;99.90;101785.03;5189447;28;20518;-70
2023/01/29 07:50:23;;;;;;;27.45;15.73;;;;;;;0.73;98.09;101791.28;5193988;28;20171;-73
2023/01/29 07:52:53;;;;;;;28.20;15.63;;;;;;;0.70;98.53;101787.78;5200667;28;20025;-73
2023/01/29 07:55:24;;;;;;;30.88;16.02;;;;;;;0.80;98.67;101780.31;5205000;28;20405;-73
2023/01/29 07:57:59;;;;;;;27.48;14.50;;;;;;;0.83;98.05;101782.06;5201056;28;20399;-72
2023/01/29 08:00:30;;;;;;;28.67;15.05;;;;;;;0.89;97.76;101777.91;5208377;28;20024;-73
2023/01/29 08:03:10;;;;;;;29.05;15.68;;;;;;;0.90;97.13;101771.94;5204790;28;20037;-73
2023/01/29 08:05:41;;;;;;;28.75;15.63;;;;;;;0.92;97.96;101767.69;5206934;28;20036;-73
2023/01/29 08:08:12;;;;;;;29.05;15.43;;;;;;;1.01;97.75;101767.91;5210137;28;20391;-73
2023/01/29 08:10:42;;;;;;;30.13;15.63;;;;;;;0.89;97.68;101757.34;5201677;28;20091;-73
2023/01/29 08:13:12;;;;;;;29.83;16.15;;;;;;;0.94;97.69;101754.88;5197945;28;20037;-72
2023/01/29 08:15:44;;;;;;;26.65;15.43;;;;;;;1.03;96.92;101750.78;5199348;28;20038;-73
2023/01/29 08:18:14;;;;;;;30.00;15.95;;;;;;;0.87;96.83;101748.72;5196116;28;20036;-72
2023/01/29 08:20:44;;;;;;;28.67;15.60;;;;;;;0.97;97.49;101763.53;5199993;28;20033;-73
2023/01/29 08:23:15;;;;;;;28.50;15.23;;;;;;;0.99;97.40;101760.97;5214237;28;20056;-73
2023/01/29 08:25:45;;;;;;;29.90;15.55;;;;;;;0.96;96.98;101759.22;5210318;28;20408;-74
2023/01/29 08:28:16;;;;;;;31.80;16.25;;;;;;;0.96;97.40;101759.22;5201011;28;20052;-73
2023/01/29 08:30:46;;;;;;;32.30;16.50;;;;;;;1.13;97.28;101750.16;5201488;28;20033;-72
2023/01/29 08:33:16;;;;;;;30.50;16.45;;;;;;;1.08;97.29;101749.19;5209890;28;20499;-72
2023/01/29 08:35:50;;;;;;;34.22;17.52;;;;;;;1.09;97.63;101743.19;5209548;28;20037;-73
2023/01/29 08:38:20;;;;;;;33.75;17.30;;;;;;;1.18;97.38;101751.13;5212197;28;20594;-72
2023/01/29 08:40:51;;;;;;;35.97;17.70;;;;;;;1.17;96.94;101759.69;5208426;28;20148;-70
2023/01/29 08:43:21;;;;;;;34.95;18.10;;;;;;;1.19;97.36;101749.41;5206899;28;20028;-73
2023/01/29 08:45:51;;;;;;;33.30;17.15;;;;;;;1.22;98.63;101742.63;5198915;28;20029;-72
2023/01/29 08:48:22;;;;;;;32.28;17.15;;;;;;;1.22;98.91;101744.34;5206579;28;20394;-73
2023/01/29 08:50:56;;;;;;;35.45;18.02;;;;;;;1.16;99.67;101750.22;5204086;28;20049;-73
2023/01/29 08:53:27;;;;;;;36.30;18.58;;;;;;;1.15;100.00;101739.88;5204535;28;20041;-72
2023/01/29 08:55:57;;;;;;;35.60;19.10;;;;;;;1.20;98.98;101748.59;5208162;28;20029;-73
2023/01/29 08:58:27;;;;;;;34.88;18.13;;;;;;;1.27;98.65;101747.88;5203555;28;20028;-71
2023/01/29 09:01:08;;;;;;;40.53;18.20;;;;;;;1.19;99.06;101747.72;5199086;28;20391;-73
2023/01/29 09:03:43;;;;;;;32.50;17.63;;;;;;;1.35;98.70;101743.72;5193542;28;20057;-72
2023/01/29 09:06:13;;;;;;;33.27;17.70;;;;;;;1.29;97.67;101733.31;5200665;28;20078;-73
2023/01/29 09:08:44;;;;;;;32.58;17.33;;;;;;;1.33;98.13;101738.56;5204415;28;20064;-73
2023/01/29 09:11:14;;;;;;;33.83;17.65;;;;;;;1.26;99.25;101723.81;5204329;28;20052;-73
2023/01/29 09:13:45;;;;;;;34.13;17.45;;;;;;;1.25;98.98;101724.66;5203596;28;20033;-74
2023/01/29 09:16:15;;;;;;;34.90;18.20;;;;;;;1.26;98.78;101718.66;5201841;28;20084;-75
2023/01/29 09:18:45;;;;;;;31.38;16.73;;;;;;;1.38;99.32;101710.34;5205400;28;20112;-73
2023/01/29 09:21:16;;;;;;;35.05;17.73;;;;;;;1.36;98.38;101715.44;5201810;28;20124;-73
2023/01/29 09:23:46;;;;;;;32.05;16.85;;;;;;;1.40;98.27;101704.34;5207810;28;20467;-73
2023/01/29 09:26:16;;;;;;;32.90;17.38;;;;;;;1.44;98.53;101707.88;5201186;28;20132;-73
2023/01/29 09:28:47;;;;;;;32.20;17.13;;;;;;;1.36;98.79;101697.41;5201190;28;20033;-73
2023/01/29 09:31:17;;;;;;;34.88;17.38;;;;;;;1.46;99.12;101694.19;5193414;28;20052;-74
2023/01/29 09:33:47;;;;;;;34.08;17.25;;;;;;;1.40;99.45;101688.91;5201300;28;20033;-74
2023/01/29 09:36:17;;;;;;;31.73;16.70;;;;;;;1.38;99.80;101692.31;5195222;28;20071;-74
2023/01/29 09:38:48;;;;;;;35.03;17.63;;;;;;;1.44;99.92;101698.41;5199816;28;20036;-70
2023/01/29 09:41:35;;;;;;;34.30;17.80;;;;;;;1.47;99.32;101693.34;5203385;28;20037;-74
2023/01/29 09:44:18;;;;;;;33.30;17.15;;;;;;;1.43;100.00;101685.53;5191686;28;20029;-73
2023/01/29 09:46:51;;;;;;;31.90;16.08;;;;;;;1.38;100.00;101674.28;5189042;28;20053;-74
2023/01/29 09:49:36;;;;;;;33.92;16.52;;;;;;;1.39;100.00;101679.44;5191009;28;20053;-74
2023/01/29 09:52:15;;;;;;;32.22;16.65;;;;;;;1.36;100.00;101683.66;5203295;28;20038;-74
2023/01/29 09:55:26;;;;;;;31.13;16.75;;;;;;;1.39;100.00;101676.88;5196840;28;20635;-73
2023/01/29 09:57:59;;;;;;;32.15;16.30;;;;;;;1.46;100.00;101676.16;5179974;28;20045;-74
2023/01/29 10:00:47;;;;;;;33.40;17.20;;;;;;;1.43;100.00;101686.38;5186431;28;20131;-74
2023/01/29 10:03:42;;;;;;;31.10;16.30;;;;;;;1.38;100.00;101676.88;5193908;28;20153;-74
2023/01/29 10:06:34;;;;;;;34.60;17.08;;;;;;;1.44;100.00;101682.97;5187423;28;20036;-72
2023/01/29 10:09:26;;;;;;;30.27;15.25;;;;;;;1.59;99.30;101672.94;5201301;28;20052;-73
2023/01/29 10:12:15;;;;;;;32.33;17.10;;;;;;;1.67;99.03;101675.66;5198436;28;20055;-75
2023/01/29 10:15:19;;;;;;;30.73;14.85;;;;;;;1.68;98.43;101670.56;5188632;28;20064;-73
2023/01/29 10:18:19;;;;;;;35.03;15.85;;;;;;;1.80;98.65;101669.03;5191124;28;20052;-73
2023/01/29 10:21:12;;;;;;;34.67;16.65;;;;;;;1.75;98.36;101669.81;5198963;28;20147;-70
2023/01/29 10:23:49;;;;;;;30.65;16.00;;;;;;;1.70;98.34;101666.28;5197258;28;20033;-73
2023/01/29 10:26:23;;;;;;;30.23;16.27;;;;;;;1.66;99.06;101668.78;5197602;28;20021;-73
2023/01/29 10:28:57;;;;;;;30.52;15.95;;;;;;;1.69;99.02;101659.41;5199151;28;20025;-73
2023/01/29 10:31:35;;;;;;;28.73;15.40;;;;;;;1.78;97.99;101656.97;5198186;28;20029;-74
2023/01/29 10:34:41;;;;;;;34.28;16.65;;;;;;;1.81;97.38;101654.47;5195805;28;20096;-74
2023/01/29 10:37:25;;;;;;;33.35;16.52;;;;;;;1.85;97.02;101651.09;5200085;28;20037;-74
2023/01/29 10:39:58;;;;;;;30.90;15.65;;;;;;;1.86;96.64;101652.81;5197332;28;20031;-74
2023/01/29 10:42:45;;;;;;;29.40;15.45;;;;;;;1.87;96.96;101654.56;5195408;28;20594;-73
2023/01/29 10:45:29;;;;;;;30.73;16.25;;;;;;;1.83;96.67;101643.31;5191195;28;20033;-74
2023/01/29 10:48:41;;;;;;;33.75;17.20;;;;;;;1.88;96.54;101641.72;5196478;28;20040;-74
2023/01/29 10:51:35;;;;;;;30.63;16.23;;;;;;;1.97;96.64;101641.00;5191108;28;20683;-74
2023/01/29 10:54:08;;;;;;;34.85;17.17;;;;;;;1.98;96.44;101660.78;5190226;28;20033;-74
2023/01/29 10:56:57;;;;;;;32.35;17.02;;;;;;;1.92;97.17;101655.50;5190840;28;20068;-74
2023/01/29 10:59:47;;;;;;;34.05;16.90;;;;;;;1.96;96.85;101649.56;5187211;28;20029;-74
2023/01/29 11:02:20;;;;;;;34.38;16.83;;;;;;;1.95;96.88;101640.06;5194596;28;20121;-74
2023/01/29 11:04:50;;;;;;;36.33;17.95;;;;;;;1.99;96.77;101631.56;5193787;28;20115;-73
2023/01/29 11:07:21;;;;;;;37.67;17.45;;;;;;;2.05;96.35;101618.75;5190985;28;20529;-74
2023/01/29 11:10:00;;;;;;;34.75;17.17;;;;;;;2.06;97.01;101618.81;5193323;28;20033;-73
2023/01/29 11:12:32;;;;;;;31.55;17.17;;;;;;;1.95;96.41;101616.88;5187219;28;20055;-74
2023/01/29 11:15:21;;;;;;;32.50;16.85;;;;;;;2.01;97.22;101611.84;5192317;28;20061;-74
2023/01/29 11:18:15;;;;;;;33.97;17.20;;;;;;;1.96;96.92;101606.59;5182624;28;20048;-74
2023/01/29 11:20:57;;;;;;;33.10;16.27;;;;;;;1.92;96.49;101594.53;5186897;28;20025;-74
2023/01/29 11:23:32;;;;;;;32.85;17.73;;;;;;;1.93;97.11;101583.38;5187545;28;20145;-74
2023/01/29 11:26:04;;;;;;;31.08;16.58;;;;;;;1.88;97.48;101590.16;5189553;28;20041;-74
2023/01/29 11:28:35;;;;;;;33.50;16.83;;;;;;;1.97;97.43;101590.28;5192496;28;20462;-74
2023/01/29 11:31:26;;;;;;;35.80;16.45;;;;;;;2.10;96.06;101588.75;5197418;28;20091;-73
2023/01/29 11:34:32;;;;;;;33.53;16.38;;;;;;;2.09;96.93;101581.88;5195783;28;20143;-74
2023/01/29 11:37:13;;;;;;;33.38;16.30;;;;;;;1.99;96.05;101587.75;5191493;28;20081;-75
2023/01/29 11:39:49;;;;;;;35.35;17.63;;;;;;;2.04;95.92;101573.22;5195999;28;20025;-74
2023/01/29 11:42:21;;;;;;;31.33;16.95;;;;;;;2.05;96.54;101570.66;5195824;28;20094;-75
2023/01/29 11:44:51;;;;;;;34.50;17.27;;;;;;;2.17;95.76;101565.66;5198582;28;20122;-74
2023/01/29 11:47:26;;;;;;;34.13;17.45;;;;;;;2.18;95.46;101559.66;5194313;28;20029;-75
2023/01/29 11:50:00;;;;;;;34.88;17.98;;;;;;;2.00;96.37;101558.56;5197520;28;20033;-73
2023/01/29 11:52:37;;;;;;;37.42;18.20;;;;;;;2.12;96.17;101557.00;5199523;28;20030;-73
2023/01/29 11:55:14;;;;;;;32.47;17.67;;;;;;;2.19;95.30;101550.22;5200419;28;20409;-75
2023/01/29 11:58:20;;;;;;;33.30;17.05;;;;;;;2.18;96.39;101548.50;5193233;28;20562;-74
2023/01/29 12:00:54;;;;;;;32.03;17.08;;;;;;;2.17;96.46;101546.78;5184953;28;20030;-75
2023/01/29 12:03:38;;;;;;;33.20;17.50;;;;;;;2.20;95.38;101542.50;5199759;28;20029;-74
2023/01/29 12:06:35;;;;;;;32.28;17.08;;;;;;;2.06;96.59;101533.75;5187328;28;20021;-75
2023/01/29 12:09:13;;;;;;;33.22;16.60;;;;;;;2.11;95.76;101536.34;5193955;28;20049;-74
2023/01/29 12:11:44;;;;;;;33.45;17.40;;;;;;;2.26;95.61;101532.28;5193238;28;20057;-73
2023/01/29 12:14:33;;;;;;;33.88;16.08;;;;;;;2.37;94.70;101535.00;5122192;28;21127;-74
2023/01/29 12:17:18;;;;;;;31.20;16.42;;;;;;;2.45;94.81;101538.53;5179928;28;20108;-74
2023/01/29 12:19:55;;;;;;;33.80;17.00;;;;;;;2.38;94.85;101523.84;5190400;28;20176;-75